Terminal Aerodrome Forecast
Issued by NWS Memphis, TN

Home | Current Version | Previous Version | Text Only | Print | Product List | Glossary On
Versions: 1 2 3 4 5 6 7 8 9 10 11 12 13 14 15 16 17 18
604
FTUS44 KMEG 282027 AAA
TAFMKL
TAF AMD
KMKL 282027Z 2820/2918 26010KT P6SM SCT030 BKN045
     FM290000 29006KT P6SM BKN040
     FM290400 VRB03KT P6SM SCT120=

USA.gov is the U.S. government's official web portal to all federal, state and local government web resources and services.